Time;durP1;ratioP1;P1;durP2;ratioP2;P2;SDS_P1;SDS_P2;PMS_P1;PMS_P2;Temp;Humidity;BMP_temperature;BMP_pressure;BME280_temperature;BME280_humidity;BME280_pressure;Samples;Min_cycle;Max_cycle;Signal;HPM_P1;HPM_P2
2020/12/25 00:06:25;;;;;;;;;;;;;;;;;;;;;
2020/12/25 00:13:06;;;;;;;40.42;19.50;;;;;;;;;;4812476;29;20123;-77
2020/12/25 00:16:28;;;;;;;42.80;19.02;;;;;;;;;;4824632;29;20496;-78
2020/12/25 00:22:57;;;;;;;44.05;19.65;;;;;;;;;;4769478;30;20163;-80
2020/12/25 00:25:49;;;;;;;40.55;18.38;;;;;;;;;;4761689;30;20087;-78
2020/12/25 00:32:48;;;;;;;27.10;13.85;;;;;;;;;;4761424;30;20052;-78
2020/12/25 00:37:01;;;;;;;26.08;12.75;;;;;;;;;;4723513;30;20048;-78
2020/12/25 00:43:52;;;;;;;30.52;12.70;;;;;;;;;;4769340;30;20594;-79
2020/12/25 00:46:56;;;;;;;23.65;12.13;;;;;;;;;;4971550;23;20068;-80
2020/12/25 00:49:22;;;;;;;29.70;14.02;;;;;;;;;;4978090;28;20043;-77
2020/12/25 00:51:48;;;;;;;33.63;14.48;;;;;;;;;;4980187;28;20122;-78
2020/12/25 00:54:14;;;;;;;29.30;14.05;;;;;;;;;;4979602;28;20047;-80
2020/12/25 00:56:40;;;;;;;33.42;14.48;;;;;;;;;;4980049;28;20062;-79
2020/12/25 00:59:06;;;;;;;33.08;15.25;;;;;;;;;;4981111;28;20118;-79
2020/12/25 01:01:37;;;;;;;34.55;15.43;;;;;;;;;;4980255;28;20046;-80
2020/12/25 01:04:12;;;;;;;37.88;15.70;;;;;;;;;;4981833;28;20051;-80
2020/12/25 01:06:38;;;;;;;35.88;15.43;;;;;;;;;;4996008;28;20050;-79
2020/12/25 01:09:24;;;;;;;35.65;15.38;;;;;;;;;;4980704;28;20050;-79
2020/12/25 01:11:50;;;;;;;31.40;14.35;;;;;;;;;;4980137;28;20057;-81
2020/12/25 01:14:17;;;;;;;31.48;14.40;;;;;;;;;;4982395;28;20047;-80
2020/12/25 01:16:43;;;;;;;32.45;14.57;;;;;;;;;;4985383;28;20054;-79
2020/12/25 01:19:13;;;;;;;26.67;12.32;;;;;;;;;;4997285;28;20030;-79
2020/12/25 01:21:39;;;;;;;29.75;12.50;;;;;;;;;;4997790;28;20038;-78
2020/12/25 01:24:05;;;;;;;29.50;13.00;;;;;;;;;;4979506;28;20039;-78
2020/12/25 01:26:31;;;;;;;31.88;12.70;;;;;;;;;;4981552;28;20502;-79
2020/12/25 01:29:01;;;;;;;32.42;13.85;;;;;;;;;;4980991;28;20121;-79
2020/12/25 01:31:27;;;;;;;30.40;13.27;;;;;;;;;;4981038;28;20098;-79
2020/12/25 01:33:53;;;;;;;33.33;13.50;;;;;;;;;;4979505;28;20074;-79
2020/12/25 01:36:19;;;;;;;31.48;13.07;;;;;;;;;;4978692;28;20043;-79
2020/12/25 01:38:45;;;;;;;27.40;13.00;;;;;;;;;;4982423;28;20135;-79
2020/12/25 01:41:11;;;;;;;28.95;13.43;;;;;;;;;;4976080;28;20041;-80
2020/12/25 01:43:37;;;;;;;33.85;14.45;;;;;;;;;;4982918;28;20046;-78
2020/12/25 01:46:04;;;;;;;31.92;14.38;;;;;;;;;;4997632;28;20050;-79
2020/12/25 01:48:31;;;;;;;29.55;12.40;;;;;;;;;;4984024;28;20047;-78
2020/12/25 01:50:57;;;;;;;27.83;11.95;;;;;;;;;;4985539;28;20047;-78
2020/12/25 01:53:25;;;;;;;24.92;11.27;;;;;;;;;;4985902;28;20118;-79
2020/12/25 01:55:52;;;;;;;26.08;11.02;;;;;;;;;;4983810;28;20047;-79
2020/12/25 01:58:20;;;;;;;22.60;10.68;;;;;;;;;;4985015;28;20051;-77
2020/12/25 02:00:49;;;;;;;25.05;10.45;;;;;;;;;;4981665;28;20153;-81
2020/12/25 02:03:15;;;;;;;25.05;11.23;;;;;;;;;;4981069;28;20357;-80
2020/12/25 02:05:46;;;;;;;25.33;11.05;;;;;;;;;;4982504;28;20050;-81
2020/12/25 02:08:13;;;;;;;30.45;11.93;;;;;;;;;;4980426;28;20094;-80
2020/12/25 02:10:40;;;;;;;23.15;11.15;;;;;;;;;;4978557;28;20046;-80
2020/12/25 02:13:07;;;;;;;28.60;11.93;;;;;;;;;;4978965;28;20364;-80
2020/12/25 02:15:35;;;;;;;28.92;11.88;;;;;;;;;;4978378;28;20462;-81
2020/12/25 02:18:02;;;;;;;27.45;12.13;;;;;;;;;;4978538;28;20054;-81
2020/12/25 02:20:28;;;;;;;24.33;10.70;;;;;;;;;;4979804;28;20054;-81
2020/12/25 02:23:08;;;;;;;27.92;11.50;;;;;;;;;;4980104;28;20050;-79
2020/12/25 02:25:36;;;;;;;30.23;12.02;;;;;;;;;;4987504;28;20074;-78
2020/12/25 02:28:03;;;;;;;34.47;13.23;;;;;;;;;;4992880;28;20039;-79
2020/12/25 02:30:29;;;;;;;30.08;12.70;;;;;;;;;;4993149;28;20058;-81
2020/12/25 02:32:55;;;;;;;31.25;13.60;;;;;;;;;;5008248;28;20042;-79
2020/12/25 02:35:22;;;;;;;35.70;15.00;;;;;;;;;;4992630;28;20054;-78
2020/12/25 02:37:48;;;;;;;39.17;16.38;;;;;;;;;;4992129;28;20046;-77
2020/12/25 02:40:15;;;;;;;41.20;16.75;;;;;;;;;;4993203;28;20066;-81
2020/12/25 02:42:42;;;;;;;46.47;17.90;;;;;;;;;;4992616;28;20061;-79
2020/12/25 02:45:09;;;;;;;44.05;17.67;;;;;;;;;;4992081;28;20118;-80
2020/12/25 02:47:35;;;;;;;51.38;18.95;;;;;;;;;;4991680;28;20062;-78
2020/12/25 02:50:02;;;;;;;51.63;20.52;;;;;;;;;;4993994;28;20043;-78
2020/12/25 02:52:28;;;;;;;58.72;20.83;;;;;;;;;;4993840;28;20077;-78
2020/12/25 02:54:54;;;;;;;54.80;20.95;;;;;;;;;;4994030;28;20081;-77
2020/12/25 02:57:21;;;;;;;51.70;21.05;;;;;;;;;;4986306;28;20054;-79
2020/12/25 02:59:47;;;;;;;53.50;20.20;;;;;;;;;;4980456;28;20054;-80
2020/12/25 03:02:14;;;;;;;50.67;19.13;;;;;;;;;;4979646;28;20113;-80
2020/12/25 03:04:40;;;;;;;48.95;19.10;;;;;;;;;;4978017;28;20402;-78
2020/12/25 03:07:06;;;;;;;47.05;17.80;;;;;;;;;;4977425;28;20050;-79
2020/12/25 03:09:32;;;;;;;43.35;17.52;;;;;;;;;;4976553;28;20046;-79
2020/12/25 03:11:58;;;;;;;39.22;15.40;;;;;;;;;;4978917;28;20083;-79
2020/12/25 03:14:25;;;;;;;35.40;14.57;;;;;;;;;;4978562;28;20046;-80
2020/12/25 03:16:51;;;;;;;38.08;16.52;;;;;;;;;;4980478;28;20049;-78
2020/12/25 03:19:17;;;;;;;36.65;16.25;;;;;;;;;;4977927;28;20054;-78
2020/12/25 03:21:43;;;;;;;36.90;16.02;;;;;;;;;;4980062;28;20074;-78
2020/12/25 03:24:10;;;;;;;44.28;16.65;;;;;;;;;;4994372;28;20061;-80
2020/12/25 03:26:36;;;;;;;43.92;16.98;;;;;;;;;;4979655;28;20038;-81
2020/12/25 03:29:03;;;;;;;43.15;17.65;;;;;;;;;;4993923;28;20047;-79
2020/12/25 03:31:29;;;;;;;34.80;14.95;;;;;;;;;;4979432;28;20050;-80
2020/12/25 03:33:55;;;;;;;35.45;14.80;;;;;;;;;;4991865;28;20130;-81
2020/12/25 03:36:21;;;;;;;34.85;14.77;;;;;;;;;;4961177;28;20051;-80
2020/12/25 03:38:48;;;;;;;28.23;11.95;;;;;;;;;;4978943;28;20109;-82
2020/12/25 03:41:14;;;;;;;27.30;12.55;;;;;;;;;;4980095;28;20057;-81
2020/12/25 03:43:40;;;;;;;24.17;12.18;;;;;;;;;;4980818;28;20290;-80
2020/12/25 03:46:07;;;;;;;27.80;12.43;;;;;;;;;;4981100;28;20150;-78
2020/12/25 03:48:33;;;;;;;28.05;12.90;;;;;;;;;;4977816;28;20054;-79
2020/12/25 03:51:00;;;;;;;26.77;13.02;;;;;;;;;;4976679;28;20063;-79
2020/12/25 03:53:26;;;;;;;32.30;14.07;;;;;;;;;;4978521;28;20045;-80
2020/12/25 03:55:52;;;;;;;36.15;14.07;;;;;;;;;;4978277;28;20054;-80
2020/12/25 03:58:19;;;;;;;32.70;14.90;;;;;;;;;;4977534;28;20142;-82
2020/12/25 04:00:46;;;;;;;31.00;13.20;;;;;;;;;;4978107;28;20070;-81
2020/12/25 04:03:14;;;;;;;29.65;13.43;;;;;;;;;;4994346;28;20506;-79
2020/12/25 04:05:40;;;;;;;29.17;13.20;;;;;;;;;;4977652;28;20055;-81
2020/12/25 04:08:06;;;;;;;34.78;14.85;;;;;;;;;;4979261;28;20051;-80
2020/12/25 04:10:32;;;;;;;36.10;15.32;;;;;;;;;;4986564;28;20039;-81
2020/12/25 04:13:01;;;;;;;38.75;15.13;;;;;;;;;;4986844;28;20082;-79
2020/12/25 04:15:28;;;;;;;32.22;14.60;;;;;;;;;;4979708;28;20050;-80
2020/12/25 04:17:54;;;;;;;36.40;14.18;;;;;;;;;;4980212;28;20042;-79
2020/12/25 04:20:20;;;;;;;32.53;14.23;;;;;;;;;;4984514;28;20074;-81
2020/12/25 04:22:46;;;;;;;22.92;9.98;;;;;;;;;;4995269;28;20107;-79
2020/12/25 04:25:12;;;;;;;23.48;9.07;;;;;;;;;;4996989;28;20058;-78
2020/12/25 04:27:38;;;;;;;18.50;9.07;;;;;;;;;;4996492;28;20110;-79
2020/12/25 04:30:06;;;;;;;19.35;7.80;;;;;;;;;;4991494;28;20042;-80
2020/12/25 04:32:32;;;;;;;20.30;8.23;;;;;;;;;;4999427;28;20142;-81
2020/12/25 04:34:58;;;;;;;18.05;8.35;;;;;;;;;;4982174;28;20046;-81
2020/12/25 04:37:26;;;;;;;16.77;8.25;;;;;;;;;;4982729;28;20101;-81
2020/12/25 04:39:52;;;;;;;17.27;8.38;;;;;;;;;;4983138;28;20070;-81
2020/12/25 04:42:20;;;;;;;22.90;9.27;;;;;;;;;;4982116;28;20043;-81
2020/12/25 04:44:47;;;;;;;19.48;9.27;;;;;;;;;;4981753;28;20054;-81
2020/12/25 04:47:16;;;;;;;20.80;10.05;;;;;;;;;;4983374;28;20046;-80
2020/12/25 04:49:42;;;;;;;16.88;8.82;;;;;;;;;;4966848;28;20562;-81
2020/12/25 04:52:08;;;;;;;16.02;7.95;;;;;;;;;;4982046;28;20062;-79
2020/12/25 04:54:35;;;;;;;12.98;7.03;;;;;;;;;;4984614;28;20043;-81
2020/12/25 04:57:02;;;;;;;14.18;6.50;;;;;;;;;;4990059;28;20094;-78
2020/12/25 04:59:29;;;;;;;11.85;6.50;;;;;;;;;;4976455;28;20103;-79
2020/12/25 05:01:56;;;;;;;14.38;6.30;;;;;;;;;;4991849;28;20053;-78
2020/12/25 05:04:24;;;;;;;13.23;6.47;;;;;;;;;;4994138;28;20047;-77
2020/12/25 05:06:51;;;;;;;17.75;7.10;;;;;;;;;;4995457;28;20098;-78
2020/12/25 05:09:20;;;;;;;14.38;7.07;;;;;;;;;;4993754;28;20043;-78
2020/12/25 05:11:53;;;;;;;13.57;6.43;;;;;;;;;;4990604;28;20126;-80
2020/12/25 05:14:24;;;;;;;17.70;7.28;;;;;;;;;;4983390;28;20106;-79
2020/12/25 05:16:53;;;;;;;17.45;7.10;;;;;;;;;;4998142;28;20043;-80
2020/12/25 05:19:21;;;;;;;17.05;7.43;;;;;;;;;;4982738;28;20057;-78
2020/12/25 05:21:52;;;;;;;16.10;6.90;;;;;;;;;;4984075;28;20081;-79
2020/12/25 05:24:18;;;;;;;11.95;6.68;;;;;;;;;;5002332;28;20089;-80
2020/12/25 05:26:55;;;;;;;18.30;6.95;;;;;;;;;;4993185;28;20059;-79
2020/12/25 05:29:25;;;;;;;13.68;7.00;;;;;;;;;;5007958;28;20061;-78
2020/12/25 05:31:52;;;;;;;14.85;7.35;;;;;;;;;;5007421;28;20053;-78
2020/12/25 05:34:19;;;;;;;16.00;7.57;;;;;;;;;;4992489;28;20054;-79
2020/12/25 05:36:52;;;;;;;13.80;7.57;;;;;;;;;;5007927;28;20058;-79
2020/12/25 05:39:31;;;;;;;14.05;7.82;;;;;;;;;;4991997;28;20043;-80
2020/12/25 05:41:59;;;;;;;14.30;7.63;;;;;;;;;;5007318;28;20039;-80
2020/12/25 05:44:26;;;;;;;13.45;7.80;;;;;;;;;;5006705;28;20057;-78
2020/12/25 05:46:57;;;;;;;17.02;8.10;;;;;;;;;;4995233;28;20027;-79
2020/12/25 05:49:25;;;;;;;11.82;7.28;;;;;;;;;;5006944;28;20256;-79
2020/12/25 05:51:52;;;;;;;14.88;7.55;;;;;;;;;;4987804;28;20074;-79
2020/12/25 05:54:20;;;;;;;16.30;7.75;;;;;;;;;;4981648;28;20077;-80
2020/12/25 05:56:51;;;;;;;15.25;7.90;;;;;;;;;;4981537;28;20403;-79
2020/12/25 05:59:30;;;;;;;14.68;7.32;;;;;;;;;;4982446;28;20046;-80
2020/12/25 06:01:58;;;;;;;13.25;6.55;;;;;;;;;;4981504;28;20479;-79
2020/12/25 06:04:25;;;;;;;12.88;6.18;;;;;;;;;;4996747;28;20050;-80
2020/12/25 06:06:52;;;;;;;11.02;6.38;;;;;;;;;;4981653;28;20073;-80
2020/12/25 06:09:19;;;;;;;9.93;4.82;;;;;;;;;;4980256;28;20514;-79
2020/12/25 06:11:50;;;;;;;10.00;4.72;;;;;;;;;;4980687;28;20042;-80
2020/12/25 06:14:17;;;;;;;9.75;4.50;;;;;;;;;;4979462;28;20046;-79
2020/12/25 06:16:45;;;;;;;6.68;4.00;;;;;;;;;;4980429;28;20046;-81
2020/12/25 06:19:16;;;;;;;8.38;4.00;;;;;;;;;;4979624;28;20104;-81
2020/12/25 06:22:04;;;;;;;8.82;4.53;;;;;;;;;;4979452;28;20043;-80
2020/12/25 06:24:34;;;;;;;10.70;4.20;;;;;;;;;;4978503;28;20298;-80
2020/12/25 06:27:01;;;;;;;7.70;4.68;;;;;;;;;;4979305;28;20538;-79
2020/12/25 06:29:28;;;;;;;10.00;4.97;;;;;;;;;;4962137;28;20250;-78
2020/12/25 06:31:56;;;;;;;8.32;5.07;;;;;;;;;;4980817;28;20050;-79
2020/12/25 06:34:43;;;;;;;11.52;5.07;;;;;;;;;;4979695;28;20051;-81
2020/12/25 06:37:14;;;;;;;7.95;4.57;;;;;;;;;;4979563;28;20089;-80
2020/12/25 06:39:46;;;;;;;8.18;4.70;;;;;;;;;;4962047;28;20054;-78
2020/12/25 06:42:13;;;;;;;7.35;4.55;;;;;;;;;;4963492;28;20051;-78
2020/12/25 06:44:46;;;;;;;9.43;5.90;;;;;;;;;;4980758;28;20130;-81
2020/12/25 06:51:02;;;;;;;;;;;;;;;;;;;;;
2020/12/25 06:57:32;;;;;;;11.18;5.95;;;;;;;;;;5005508;28;20041;-80
2020/12/25 07:00:29;;;;;;;9.75;6.00;;;;;;;;;;4964268;28;20047;-79
2020/12/25 07:03:30;;;;;;;9.18;5.63;;;;;;;;;;4995007;28;20030;-78
2020/12/25 07:10:11;;;;;;;8.88;5.45;;;;;;;;;;4927305;28;20053;-80
2020/12/25 07:12:59;;;;;;;;;;;;;;;;;;4946590;29;20055;-78
2020/12/25 07:18:54;;;;;;;10.27;5.35;;;;;;;;;;4920157;29;20126;-77
2020/12/25 07:22:14;;;;;;;10.10;6.10;;;;;;;;;;4946640;29;20047;-78
2020/12/25 07:24:58;;;;;;;8.35;5.60;;;;;;;;;;4930597;29;20091;-78
2020/12/25 07:27:55;;;;;;;10.68;5.97;;;;;;;;;;4930208;29;20059;-80
2020/12/25 07:30:52;;;;;;;;;;;;;;;;;;;;;
2020/12/25 07:33:50;;;;;;;;;;;;;;;;;;4949520;29;20416;-79
2020/12/25 07:37:06;;;;;;;14.83;6.90;;;;;;;;;;4911743;29;19994;-80
2020/12/25 07:39:58;;;;;;;18.30;6.65;;;;;;;;;;4888821;29;20173;-79
2020/12/25 07:43:31;;;;;;;14.02;7.13;;;;;;;;;;4874786;29;20123;-79
2020/12/25 07:47:13;;;;;;;13.82;6.82;;;;;;;;;;4879752;29;20059;-79
2020/12/25 07:49:49;;;;;;;12.00;7.03;;;;;;;;;;4907008;29;20135;-78
2020/12/25 07:53:15;;;;;;;16.38;6.90;;;;;;;;;;4926283;28;20043;-78
2020/12/25 07:56:53;;;;;;;;;;;;;;;;;;;;;
2020/12/25 07:59:54;;;;;;;11.25;6.18;;;;;;;;;;4916089;29;20239;-79
2020/12/25 08:02:52;;;;;;;12.50;5.80;;;;;;;;;;4883462;29;20157;-79
2020/12/25 08:05:48;;;;;;;12.07;6.00;;;;;;;;;;4896730;29;20045;-79
2020/12/25 08:08:53;;;;;;;12.35;5.85;;;;;;;;;;4896415;29;20035;-78
2020/12/25 08:18:59;;;;;;;9.20;5.18;;;;;;;;;;4859730;29;20442;-79
2020/12/25 08:22:16;;;;;;;9.70;5.28;;;;;;;;;;4976414;28;20150;-79
2020/12/25 08:25:34;;;;;;;11.95;5.30;;;;;;;;;;4942950;28;20050;-79
2020/12/25 08:28:40;;;;;;;8.65;4.88;;;;;;;;;;4973484;28;20253;-80
2020/12/25 08:31:36;;;;;;;8.60;4.10;;;;;;;;;;4991985;28;20041;-78
2020/12/25 08:34:28;;;;;;;;;;;;;;;;;;4955620;28;20043;-78
2020/12/25 08:37:21;;;;;;;8.02;4.10;;;;;;;;;;4984168;28;19922;-79
2020/12/25 08:40:15;;;;;;;8.85;4.20;;;;;;;;;;4960566;28;20133;-78
2020/12/25 08:43:09;;;;;;;10.35;4.10;;;;;;;;;;4963034;28;20054;-78
2020/12/25 08:46:06;;;;;;;12.57;4.50;;;;;;;;;;4974977;28;20101;-81
2020/12/25 08:48:52;;;;;;;11.45;4.43;;;;;;;;;;4987366;28;20039;-81
2020/12/25 08:51:46;;;;;;;9.75;4.40;;;;;;;;;;4969258;28;20050;-82
2020/12/25 08:54:37;;;;;;;7.25;3.50;;;;;;;;;;4989330;28;20054;-81
2020/12/25 08:57:18;;;;;;;11.48;3.60;;;;;;;;;;4961482;28;20038;-82
2020/12/25 09:00:07;;;;;;;8.30;3.63;;;;;;;;;;4972630;28;20062;-82
2020/12/25 09:03:03;;;;;;;8.88;3.58;;;;;;;;;;4993856;28;20301;-81
2020/12/25 09:05:39;;;;;;;8.05;2.83;;;;;;;;;;4993087;28;20055;-80
2020/12/25 09:08:22;;;;;;;5.15;2.90;;;;;;;;;;5010557;28;20050;-81
2020/12/25 09:11:13;;;;;;;9.85;2.90;;;;;;;;;;4965018;28;20106;-82
2020/12/25 09:14:01;;;;;;;8.95;2.72;;;;;;;;;;4976064;28;20498;-81
2020/12/25 09:16:46;;;;;;;4.10;2.67;;;;;;;;;;4991294;28;20167;-81
2020/12/25 09:19:59;;;;;;;4.85;2.80;;;;;;;;;;4965716;28;20129;-81
2020/12/25 09:23:44;;;;;;;7.25;3.33;;;;;;;;;;4886556;29;20544;-79
2020/12/25 09:26:46;;;;;;;7.60;2.58;;;;;;;;;;4900257;29;20040;-79
2020/12/25 09:29:59;;;;;;;8.68;3.40;;;;;;;;;;4901215;29;20466;-81
2020/12/25 09:33:11;;;;;;;4.88;2.65;;;;;;;;;;4890687;29;20052;-78
2020/12/25 09:36:20;;;;;;;6.70;2.88;;;;;;;;;;4911902;29;20624;-78
2020/12/25 09:39:27;;;;;;;4.68;2.50;;;;;;;;;;4904913;29;20449;-80
2020/12/25 09:42:48;;;;;;;;;;;;;;;;;;;;;
2020/12/25 09:46:20;;;;;;;;;;;;;;;;;;;;;
2020/12/25 09:49:41;;;;;;;3.92;2.40;;;;;;;;;;4892337;29;20511;-77
2020/12/25 09:52:59;;;;;;;6.82;2.63;;;;;;;;;;4813333;29;20609;-78
2020/12/25 09:59:38;;;;;;;7.65;2.53;;;;;;;;;;4987610;28;20068;-79
2020/12/25 10:02:56;;;;;;;;;;;;;;;;;;;;;
2020/12/25 10:06:00;;;;;;;3.20;1.80;;;;;;;;;;4912813;29;20048;-80
2020/12/25 10:09:15;;;;;;;;;;;;;;;;;;;;;
2020/12/25 10:15:44;;;;;;;5.15;1.60;;;;;;;;;;4878693;29;20148;-79
2020/12/25 10:19:38;;;;;;;;;;;;;;;;;;;;;
2020/12/25 10:27:04;;;;;;;8.10;2.75;;;;;;;;;;4835993;29;20045;-79
2020/12/25 10:54:42;;;;;;;3.50;1.95;;;;;;;;;;4758339;30;20111;-79
2020/12/25 11:01:30;;;;;;;8.88;2.30;;;;;;;;;;4760414;30;20144;-80
2020/12/25 11:04:48;;;;;;;9.52;2.90;;;;;;;;;;4767334;29;20039;-78
2020/12/25 11:08:22;;;;;;;;;;;;;;;;;;;;;
2020/12/25 11:11:45;;;;;;;5.63;2.00;;;;;;;;;;4872337;29;20058;-80
2020/12/25 11:15:12;;;;;;;4.13;1.40;;;;;;;;;;4882475;29;20052;-80
2020/12/25 11:18:08;;;;;;;3.88;1.15;;;;;;;;;;4815630;29;20050;-79
2020/12/25 11:21:49;;;;;;;;;;;;;;;;;;;;;
2020/12/25 11:24:46;;;;;;;2.67;1.20;;;;;;;;;;4799352;29;20178;-78
2020/12/25 11:28:34;;;;;;;;;;;;;;;;;;;;;
2020/12/25 11:32:09;;;;;;;8.52;2.72;;;;;;;;;;4968016;28;20051;-80
2020/12/25 11:35:52;;;;;;;15.20;3.70;;;;;;;;;;4936699;28;20102;-81
2020/12/25 11:38:58;;;;;;;5.55;1.83;;;;;;;;;;4891241;29;20099;-80
2020/12/25 11:42:27;;;;;;;;;;;;;;;;;;;;;
2020/12/25 11:50:28;;;;;;;6.00;1.90;;;;;;;;;;4806708;29;20055;-79
2020/12/25 11:53:44;;;;;;;11.00;2.47;;;;;;;;;;4823742;29;20038;-80
2020/12/25 12:00:58;;;;;;;3.15;2.20;;;;;;;;;;4794900;29;20534;-76
2020/12/25 12:10:30;;;;;;;4.85;1.63;;;;;;;;;;5032009;23;20061;-80
2020/12/25 12:14:14;;;;;;;;;;;;;;;;;;;;;
2020/12/25 12:21:03;;;;;;;6.35;1.38;;;;;;;;;;5022254;28;20036;-82
2020/12/25 12:24:37;;;;;;;2.80;1.15;;;;;;;;;;5023727;28;20102;-81
2020/12/25 12:38:16;;;;;;;;;;;;;;;;;;;;;
2020/12/25 12:49:18;;;;;;;3.70;1.65;;;;;;;;;;4970142;23;20200;-79
2020/12/25 12:51:44;;;;;;;3.95;1.25;;;;;;;;;;5018277;28;20046;-79
2020/12/25 12:54:10;;;;;;;7.28;2.80;;;;;;;;;;5000625;28;20520;-78
2020/12/25 12:56:37;;;;;;;6.05;2.60;;;;;;;;;;4983776;28;20525;-78
2020/12/25 12:59:03;;;;;;;3.47;1.48;;;;;;;;;;4987170;28;20091;-80
2020/12/25 13:01:30;;;;;;;3.45;1.40;;;;;;;;;;4979815;28;20047;-79
2020/12/25 13:03:59;;;;;;;4.35;1.40;;;;;;;;;;4996914;28;20137;-80
2020/12/25 13:06:25;;;;;;;3.08;1.50;;;;;;;;;;4999922;28;20049;-79
2020/12/25 13:08:51;;;;;;;17.15;4.60;;;;;;;;;;4995566;28;20050;-78
2020/12/25 13:11:27;;;;;;;11.65;3.90;;;;;;;;;;4995513;28;20092;-78
2020/12/25 13:13:53;;;;;;;6.13;2.33;;;;;;;;;;4978310;28;20070;-78
2020/12/25 13:16:21;;;;;;;4.95;1.73;;;;;;;;;;4996259;28;20046;-78
2020/12/25 13:18:47;;;;;;;3.20;1.10;;;;;;;;;;4988293;28;20049;-78
2020/12/25 13:21:20;;;;;;;4.55;1.20;;;;;;;;;;4990498;28;20054;-78
2020/12/25 13:23:47;;;;;;;4.45;1.27;;;;;;;;;;5006409;28;20046;-79
2020/12/25 13:26:14;;;;;;;6.00;2.25;;;;;;;;;;4978232;28;20073;-78
2020/12/25 13:28:40;;;;;;;3.28;1.67;;;;;;;;;;4976004;28;20073;-78
2020/12/25 13:31:16;;;;;;;4.10;2.08;;;;;;;;;;4992467;28;20042;-77
2020/12/25 13:33:43;;;;;;;4.90;2.30;;;;;;;;;;4993309;28;20192;-78
2020/12/25 13:36:09;;;;;;;5.18;2.60;;;;;;;;;;4993387;28;20229;-78
2020/12/25 13:38:35;;;;;;;5.30;2.47;;;;;;;;;;4992808;28;20038;-78
2020/12/25 13:41:11;;;;;;;4.70;2.80;;;;;;;;;;4993760;28;20054;-79
2020/12/25 13:43:38;;;;;;;5.55;2.88;;;;;;;;;;4993116;28;20403;-78
2020/12/25 13:46:04;;;;;;;5.38;2.92;;;;;;;;;;4993435;28;20042;-78
2020/12/25 13:48:30;;;;;;;4.75;3.05;;;;;;;;;;4991315;28;20683;-78
2020/12/25 13:50:58;;;;;;;11.02;3.45;;;;;;;;;;5002820;28;20057;-77
2020/12/25 13:53:26;;;;;;;7.25;3.35;;;;;;;;;;5010711;28;20042;-78
2020/12/25 13:55:52;;;;;;;13.40;4.40;;;;;;;;;;4999052;28;20038;-78
2020/12/25 13:58:19;;;;;;;8.45;4.15;;;;;;;;;;4993542;28;20085;-79
2020/12/25 14:00:45;;;;;;;9.48;4.05;;;;;;;;;;4995193;28;20046;-79
2020/12/25 14:03:11;;;;;;;8.13;4.00;;;;;;;;;;4994945;28;20073;-79
2020/12/25 14:05:38;;;;;;;7.53;3.72;;;;;;;;;;4993219;28;20046;-78
2020/12/25 14:08:04;;;;;;;8.05;4.43;;;;;;;;;;4992224;28;20050;-78
2020/12/25 14:10:31;;;;;;;6.47;3.75;;;;;;;;;;4980831;28;20092;-80
2020/12/25 14:12:57;;;;;;;10.00;4.25;;;;;;;;;;4996588;28;20073;-79
2020/12/25 14:15:23;;;;;;;13.93;6.00;;;;;;;;;;5003182;28;20053;-78
2020/12/25 14:17:49;;;;;;;10.70;4.35;;;;;;;;;;4993808;28;20047;-78
2020/12/25 14:20:15;;;;;;;15.43;5.20;;;;;;;;;;4996357;28;20046;-78
2020/12/25 14:22:41;;;;;;;12.93;4.88;;;;;;;;;;4995908;28;20066;-77
2020/12/25 14:25:08;;;;;;;11.55;5.20;;;;;;;;;;4994159;28;20137;-77
2020/12/25 14:27:35;;;;;;;12.50;5.35;;;;;;;;;;4992480;28;20043;-77
2020/12/25 14:30:03;;;;;;;13.77;6.03;;;;;;;;;;4975918;28;20050;-78
2020/12/25 14:32:31;;;;;;;14.85;5.72;;;;;;;;;;4997242;28;20046;-78
2020/12/25 14:34:58;;;;;;;14.45;5.38;;;;;;;;;;4995457;28;20081;-79
2020/12/25 14:37:26;;;;;;;10.30;5.80;;;;;;;;;;4995272;28;20046;-79
2020/12/25 14:39:52;;;;;;;12.30;5.43;;;;;;;;;;4978771;28;20054;-79
2020/12/25 14:42:18;;;;;;;8.15;5.00;;;;;;;;;;4996179;28;20046;-80
2020/12/25 14:44:45;;;;;;;11.80;5.90;;;;;;;;;;4994931;28;20050;-80
2020/12/25 14:47:11;;;;;;;10.60;5.22;;;;;;;;;;4993174;28;20056;-79
2020/12/25 14:49:37;;;;;;;15.27;3.40;;;;;;;;;;4994544;28;20385;-80
2020/12/25 14:52:03;;;;;;;9.98;2.95;;;;;;;;;;4996403;28;20038;-79
2020/12/25 14:54:29;;;;;;;7.50;2.92;;;;;;;;;;4977556;28;20062;-80
2020/12/25 14:56:56;;;;;;;8.57;3.20;;;;;;;;;;4994186;28;20057;-80
2020/12/25 14:59:24;;;;;;;7.50;2.85;;;;;;;;;;4996738;28;20168;-80
2020/12/25 15:01:51;;;;;;;4.00;2.47;;;;;;;;;;4976409;28;20105;-79
2020/12/25 15:04:18;;;;;;;6.43;3.03;;;;;;;;;;5005630;28;20642;-78
2020/12/25 15:06:44;;;;;;;8.35;4.30;;;;;;;;;;4985403;28;20046;-79
2020/12/25 15:09:11;;;;;;;10.05;5.85;;;;;;;;;;4977715;28;20050;-79
2020/12/25 15:11:37;;;;;;;16.65;5.40;;;;;;;;;;4994154;28;20069;-78
2020/12/25 15:14:04;;;;;;;8.75;3.80;;;;;;;;;;4993995;28;20051;-79
2020/12/25 15:16:30;;;;;;;9.00;3.20;;;;;;;;;;4994397;28;20034;-79
2020/12/25 15:18:56;;;;;;;7.13;3.20;;;;;;;;;;4993892;28;20034;-79
2020/12/25 15:21:23;;;;;;;13.52;3.63;;;;;;;;;;4976037;28;20367;-79
2020/12/25 15:23:53;;;;;;;6.82;3.10;;;;;;;;;;4961088;28;20050;-80
2020/12/25 15:26:38;;;;;;;6.85;3.00;;;;;;;;;;4959832;28;20097;-79
2020/12/25 15:29:16;;;;;;;10.50;3.25;;;;;;;;;;4977316;28;20081;-79
2020/12/25 15:32:06;;;;;;;5.38;3.00;;;;;;;;;;4962073;28;20057;-80
2020/12/25 15:34:47;;;;;;;11.30;5.15;;;;;;;;;;4961568;28;20042;-79
2020/12/25 15:37:22;;;;;;;8.68;4.00;;;;;;;;;;4976951;28;20549;-80
2020/12/25 15:40:07;;;;;;;6.18;3.25;;;;;;;;;;4963066;28;20482;-79
2020/12/25 15:42:43;;;;;;;7.80;2.83;;;;;;;;;;4963136;28;20056;-79
2020/12/25 15:45:26;;;;;;;6.78;2.50;;;;;;;;;;4978054;28;20046;-79
2020/12/25 15:47:55;;;;;;;7.97;2.67;;;;;;;;;;4992341;28;20050;-79
2020/12/25 15:50:24;;;;;;;6.85;2.83;;;;;;;;;;4992964;28;20428;-79
2020/12/25 15:52:55;;;;;;;7.35;2.50;;;;;;;;;;4975559;28;20138;-79
2020/12/25 15:55:24;;;;;;;12.27;3.38;;;;;;;;;;4975149;28;20066;-80
2020/12/25 15:57:54;;;;;;;6.78;2.28;;;;;;;;;;4975266;28;20046;-78
2020/12/25 16:00:28;;;;;;;5.60;2.03;;;;;;;;;;5007829;28;20106;-79
2020/12/25 16:03:13;;;;;;;5.47;2.00;;;;;;;;;;4983636;28;20085;-78
2020/12/25 16:05:55;;;;;;;5.78;2.53;;;;;;;;;;4980576;28;20106;-80
2020/12/25 16:08:32;;;;;;;6.47;2.17;;;;;;;;;;5005095;28;20111;-79
2020/12/25 16:11:05;;;;;;;8.40;2.75;;;;;;;;;;5008762;28;20069;-78
2020/12/25 16:13:34;;;;;;;6.07;2.50;;;;;;;;;;4987589;28;20069;-79
2020/12/25 16:16:07;;;;;;;9.45;1.80;;;;;;;;;;4994379;28;20038;-79
2020/12/25 16:18:36;;;;;;;8.63;2.13;;;;;;;;;;4979120;28;20043;-78
2020/12/25 16:21:10;;;;;;;4.95;1.92;;;;;;;;;;4977990;28;20066;-79
2020/12/25 16:23:36;;;;;;;5.35;2.22;;;;;;;;;;4980738;28;20042;-79
2020/12/25 16:26:13;;;;;;;6.13;2.65;;;;;;;;;;4980971;28;20046;-79
2020/12/25 16:28:48;;;;;;;;;;;;;;;;;;4978182;28;20145;-80
2020/12/25 16:31:42;;;;;;;7.82;2.85;;;;;;;;;;4995660;28;19926;-78
2020/12/25 16:34:14;;;;;;;8.50;2.75;;;;;;;;;;4995477;28;20046;-81
2020/12/25 16:37:04;;;;;;;7.32;2.33;;;;;;;;;;4991136;28;20394;-80
2020/12/25 16:39:46;;;;;;;4.05;1.80;;;;;;;;;;4996769;28;20057;-80
2020/12/25 16:42:22;;;;;;;11.05;2.28;;;;;;;;;;4995788;28;20038;-80
2020/12/25 16:44:51;;;;;;;5.68;2.47;;;;;;;;;;4995979;28;20042;-80
2020/12/25 16:47:18;;;;;;;10.60;2.42;;;;;;;;;;4995967;28;20074;-79
2020/12/25 16:49:45;;;;;;;11.60;2.42;;;;;;;;;;4997179;28;20053;-79
2020/12/25 16:52:11;;;;;;;6.20;1.75;;;;;;;;;;4997048;28;20042;-78
2020/12/25 16:54:41;;;;;;;8.77;2.30;;;;;;;;;;4957794;28;20047;-80
2020/12/25 16:57:07;;;;;;;4.93;1.67;;;;;;;;;;4999753;28;20066;-79
2020/12/25 16:59:35;;;;;;;5.88;1.83;;;;;;;;;;4981844;28;20051;-80
2020/12/25 17:02:03;;;;;;;7.43;2.45;;;;;;;;;;5000130;28;20043;-79
2020/12/25 17:04:30;;;;;;;6.50;2.00;;;;;;;;;;5000103;28;20039;-79
2020/12/25 17:07:00;;;;;;;4.63;2.13;;;;;;;;;;4999316;28;20114;-79
2020/12/25 17:09:31;;;;;;;8.20;2.17;;;;;;;;;;4998584;28;20180;-79
2020/12/25 17:11:59;;;;;;;5.30;1.90;;;;;;;;;;4980517;28;20065;-79
2020/12/25 17:14:41;;;;;;;10.75;2.22;;;;;;;;;;4982514;28;20278;-79
2020/12/25 17:17:12;;;;;;;4.85;1.85;;;;;;;;;;4995438;28;20097;-80
2020/12/25 17:19:43;;;;;;;6.80;2.55;;;;;;;;;;4998371;28;20165;-80
2020/12/25 17:22:12;;;;;;;5.70;2.95;;;;;;;;;;4998487;28;20039;-79
2020/12/25 17:24:44;;;;;;;6.28;2.80;;;;;;;;;;4980022;28;20054;-80
2020/12/25 17:27:22;;;;;;;6.55;3.17;;;;;;;;;;4996898;28;20042;-80
2020/12/25 17:29:53;;;;;;;10.40;3.05;;;;;;;;;;4996493;28;20656;-79
2020/12/25 17:32:20;;;;;;;8.23;3.85;;;;;;;;;;4997229;28;20050;-80
2020/12/25 17:34:47;;;;;;;11.38;3.97;;;;;;;;;;4997557;28;20050;-79
2020/12/25 17:37:16;;;;;;;9.40;2.83;;;;;;;;;;4997971;28;20081;-79
2020/12/25 17:39:43;;;;;;;5.05;2.50;;;;;;;;;;4996690;28;20064;-80
2020/12/25 17:42:12;;;;;;;6.70;1.88;;;;;;;;;;4997389;28;20303;-79
2020/12/25 17:44:38;;;;;;;4.45;1.70;;;;;;;;;;4996398;28;20042;-79
2020/12/25 17:47:10;;;;;;;3.95;2.17;;;;;;;;;;4983875;28;20072;-78
2020/12/25 17:49:37;;;;;;;3.88;2.25;;;;;;;;;;4998643;28;20049;-78
2020/12/25 17:52:04;;;;;;;7.38;2.55;;;;;;;;;;5003603;28;20038;-78
2020/12/25 17:54:33;;;;;;;7.22;2.50;;;;;;;;;;5008131;28;20049;-79
2020/12/25 17:57:10;;;;;;;6.75;2.55;;;;;;;;;;5008872;28;20476;-78